Time;durP1;ratioP1;P1;durP2;ratioP2;P2;SDS_P1;SDS_P2;PMS_P1;PMS_P2;Temp;Humidity;BMP_temperature;BMP_pressure;BME280_temperature;BME280_humidity;BME280_pressure;Samples;Min_cycle;Max_cycle;Signal;HPM_P1;HPM_P2
2024/03/29 00:00:44;;;;;;;0.20;0.20;;;7.00;99.90;;;;;;5096842;28;20062;-68
2024/03/29 00:03:10;;;;;;;0.28;0.28;;;7.00;99.90;;;;;;5113210;28;20024;-68
2024/03/29 00:05:37;;;;;;;0.45;0.20;;;6.90;99.90;;;;;;5101909;28;20020;-68
2024/03/29 00:08:06;;;;;;;0.32;0.20;;;6.90;99.90;;;;;;5071954;28;20068;-68
2024/03/29 00:10:33;;;;;;;0.70;0.50;;;7.00;99.90;;;;;;5098277;28;20594;-68
2024/03/29 00:12:59;;;;;;;0.95;0.28;;;7.10;99.90;;;;;;5102052;28;20251;-68
2024/03/29 00:15:25;;;;;;;2.50;0.30;;;7.10;99.90;;;;;;5105179;28;20043;-69
2024/03/29 00:17:50;;;;;;;0.15;0.15;;;7.00;99.90;;;;;;5102867;28;20047;-69
2024/03/29 00:20:17;;;;;;;0.22;0.20;;;7.00;99.90;;;;;;5101842;28;20100;-69
2024/03/29 00:22:43;;;;;;;0.20;0.10;;;;;;;;;;5083553;28;20227;-69
2024/03/29 00:25:09;;;;;;;0.35;0.30;;;7.30;99.90;;;;;;5101629;28;20051;-69
2024/03/29 00:27:36;;;;;;;0.20;0.20;;;7.10;99.90;;;;;;5101533;28;20035;-69
2024/03/29 00:30:02;;;;;;;1.88;0.28;;;;;;;;;;5101731;28;20054;-69
2024/03/29 00:32:28;;;;;;;0.40;0.20;;;;;;;;;;5084044;28;20081;-69
2024/03/29 00:34:55;;;;;;;1.15;0.28;;;;;;;;;;5101238;28;20039;-69
2024/03/29 00:37:22;;;;;;;0.17;0.10;;;;;;;;;;5101422;28;20031;-69
2024/03/29 00:39:48;;;;;;;0.25;0.20;;;;;;;;;;5100287;28;20073;-69
2024/03/29 00:42:15;;;;;;;0.30;0.30;;;7.50;99.90;;;;;;5101437;28;20031;-69
2024/03/29 00:44:43;;;;;;;0.30;0.30;;;7.30;99.90;;;;;;5101162;28;20027;-69
2024/03/29 00:47:10;;;;;;;2.30;0.40;;;7.40;99.90;;;;;;5101487;28;20032;-68
2024/03/29 00:49:36;;;;;;;2.20;0.45;;;7.10;99.90;;;;;;5101718;28;20032;-66
2024/03/29 00:52:03;;;;;;;0.60;0.40;;;7.30;99.90;;;;;;5101178;28;20328;-67
2024/03/29 00:54:29;;;;;;;2.33;1.30;;;7.10;99.90;;;;;;5100995;28;20385;-67
2024/03/29 00:56:55;;;;;;;0.52;0.50;;;;;;;;;;5107587;28;20051;-68
2024/03/29 00:59:21;;;;;;;0.63;0.35;;;7.00;99.90;;;;;;5104741;28;20024;-67
2024/03/29 01:01:47;;;;;;;1.08;0.75;;;;;;;;;;5100920;28;20036;-68
2024/03/29 01:04:13;;;;;;;0.80;0.40;;;;;;;;;;5100914;28;20076;-69
2024/03/29 01:06:43;;;;;;;4.00;0.63;;;6.60;99.90;;;;;;5101256;28;20032;-69
2024/03/29 01:09:11;;;;;;;0.28;0.28;;;;;;;;;;5100727;28;20031;-69
2024/03/29 01:11:37;;;;;;;0.63;0.50;;;6.60;99.90;;;;;;5100834;28;20505;-68
2024/03/29 01:14:04;;;;;;;0.30;0.30;;;;;;;;;;5100833;28;20058;-69
2024/03/29 01:16:30;;;;;;;0.57;0.57;;;7.20;99.90;;;;;;5108038;28;20036;-68
2024/03/29 01:18:56;;;;;;;1.15;0.52;;;;;;;;;;5110954;28;20342;-69
2024/03/29 01:21:22;;;;;;;0.52;0.50;;;;;;;;;;5100734;28;20213;-69
2024/03/29 01:23:49;;;;;;;1.23;0.40;;;;;;;;;;5102042;28;20185;-69
2024/03/29 01:26:17;;;;;;;0.50;0.50;;;6.50;99.90;;;;;;5086504;28;20061;-69
2024/03/29 01:28:43;;;;;;;0.70;0.60;;;6.40;99.90;;;;;;5066200;28;20563;-68
2024/03/29 01:31:09;;;;;;;0.68;0.57;;;6.40;99.90;;;;;;5100695;28;20204;-69
2024/03/29 01:33:39;;;;;;;1.60;0.85;;;;;;;;;;5100241;28;20055;-69
2024/03/29 01:36:06;;;;;;;0.45;0.35;;;;;;;;;;5102212;28;20041;-69
2024/03/29 01:38:32;;;;;;;0.50;0.50;;;;;;;;;;5101197;28;20032;-68
2024/03/29 01:40:58;;;;;;;0.77;0.77;;;;;;;;;;5100924;28;20036;-66
2024/03/29 01:43:24;;;;;;;0.85;0.75;;;;;;;;;;5082143;28;20024;-66
2024/03/29 01:45:53;;;;;;;0.40;0.40;;;5.90;99.90;;;;;;5098954;28;20047;-68
2024/03/29 01:48:20;;;;;;;;;;;6.00;99.90;;;;;;5100667;28;20016;-65
2024/03/29 01:50:47;;;;;;;1.15;0.70;;;5.80;99.90;;;;;;5099774;28;19920;-67
2024/03/29 01:53:15;;;;;;;2.13;0.60;;;6.30;99.90;;;;;;5098953;28;20051;-66
2024/03/29 01:55:41;;;;;;;0.93;0.80;;;5.80;99.90;;;;;;5106863;28;20323;-65
2024/03/29 01:58:09;;;;;;;0.90;0.70;;;5.80;99.90;;;;;;5100551;28;20331;-68
2024/03/29 02:00:41;;;;;;;1.20;1.10;;;5.60;99.90;;;;;;5099722;28;20255;-67
2024/03/29 02:03:13;;;;;;;1.50;0.60;;;5.60;99.90;;;;;;5099937;28;20023;-68
2024/03/29 02:05:40;;;;;;;1.83;0.60;;;5.50;99.90;;;;;;5089708;28;20035;-69
2024/03/29 02:08:07;;;;;;;0.68;0.68;;;5.30;99.90;;;;;;5108434;28;20045;-66
2024/03/29 02:10:36;;;;;;;0.85;0.80;;;5.30;99.90;;;;;;5099984;28;20047;-65
2024/03/29 02:13:02;;;;;;;0.30;0.30;;;5.40;99.90;;;;;;5099597;28;20224;-66
2024/03/29 02:15:29;;;;;;;2.55;0.88;;;5.40;99.90;;;;;;5100207;28;20040;-66
2024/03/29 02:17:55;;;;;;;2.15;0.90;;;5.40;99.90;;;;;;5099529;28;20036;-66
2024/03/29 02:20:21;;;;;;;0.73;0.73;;;5.20;99.90;;;;;;5099731;28;20340;-66
2024/03/29 02:23:10;;;;;;;1.10;0.52;;;5.30;99.90;;;;;;5099558;28;20055;-66
2024/03/29 02:25:36;;;;;;;1.35;0.70;;;5.30;99.90;;;;;;5098826;28;20058;-66
2024/03/29 02:28:03;;;;;;;1.98;0.80;;;5.10;99.90;;;;;;5099597;28;20027;-66
2024/03/29 02:30:30;;;;;;;1.42;0.70;;;5.30;99.90;;;;;;5100352;28;20062;-67
2024/03/29 02:32:57;;;;;;;6.28;1.45;;;5.20;99.90;;;;;;5064827;28;20282;-67
2024/03/29 02:35:23;;;;;;;1.05;0.80;;;5.30;99.90;;;;;;5099464;28;20031;-67
2024/03/29 02:37:48;;;;;;;1.35;0.80;;;5.30;99.90;;;;;;5099527;28;20092;-67
2024/03/29 02:40:14;;;;;;;0.98;0.70;;;5.20;99.90;;;;;;5099582;28;20055;-67
2024/03/29 02:42:40;;;;;;;1.00;0.88;;;5.40;99.90;;;;;;5099262;28;20061;-67
2024/03/29 02:45:06;;;;;;;0.55;0.50;;;5.20;99.90;;;;;;5099536;28;20028;-67
2024/03/29 02:47:32;;;;;;;0.63;0.55;;;;;;;;;;5100021;28;20124;-67
2024/03/29 02:49:58;;;;;;;0.40;0.40;;;;;;;;;;5099484;28;20024;-68
2024/03/29 02:52:24;;;;;;;0.98;0.77;;;;;;;;;;5099387;28;20096;-68
2024/03/29 02:54:50;;;;;;;1.13;0.50;;;5.40;99.90;;;;;;5099177;28;20044;-67
2024/03/29 02:57:15;;;;;;;0.80;0.50;;;5.40;99.90;;;;;;5104550;28;20339;-68
2024/03/29 02:59:42;;;;;;;0.55;0.50;;;5.40;99.90;;;;;;5099497;28;20308;-69
2024/03/29 03:02:08;;;;;;;1.95;0.60;;;5.50;99.90;;;;;;5081173;28;20351;-67
2024/03/29 03:04:35;;;;;;;2.53;0.73;;;5.50;99.90;;;;;;5103865;28;20312;-68
2024/03/29 03:12:30;;;;;;;0.85;0.52;;;5.30;99.90;;;;;;5103179;28;20347;-67
2024/03/29 03:14:56;;;;;;;0.65;0.55;;;5.10;99.90;;;;;;5087908;28;20434;-67
2024/03/29 03:17:22;;;;;;;0.65;0.65;;;4.90;99.90;;;;;;5111919;27;20034;-67
2024/03/29 03:19:50;;;;;;;0.88;0.60;;;5.10;99.90;;;;;;5103208;28;20087;-67
2024/03/29 03:22:16;;;;;;;1.83;0.95;;;4.80;99.90;;;;;;5103530;28;20024;-68
2024/03/29 03:24:43;;;;;;;3.83;0.90;;;4.90;99.90;;;;;;5102767;28;20039;-67
2024/03/29 03:27:09;;;;;;;1.58;0.80;;;4.70;99.90;;;;;;5111478;28;20067;-67
2024/03/29 03:29:35;;;;;;;1.88;0.80;;;;;;;;;;5115268;28;20039;-68
2024/03/29 03:32:01;;;;;;;1.02;0.75;;;;;;;;;;5111136;28;20028;-66
2024/03/29 03:34:27;;;;;;;1.13;0.80;;;4.70;99.90;;;;;;5102444;28;20027;-67
2024/03/29 03:36:53;;;;;;;2.20;1.10;;;;;;;;;;5105142;28;20043;-68
2024/03/29 03:39:19;;;;;;;2.08;0.80;;;;;;;;;;5103101;28;20087;-68
2024/03/29 03:41:45;;;;;;;1.25;0.80;;;;;;;;;;5102414;28;20031;-68
2024/03/29 03:44:11;;;;;;;1.45;1.25;;;;;;;;;;5102509;28;20561;-68
2024/03/29 03:46:37;;;;;;;0.85;0.60;;;;;;;;;;5102273;28;20300;-67
2024/03/29 03:49:03;;;;;;;1.80;0.73;;;;;;;;;;5102354;28;20085;-67
2024/03/29 03:51:28;;;;;;;1.83;0.85;;;4.40;99.90;;;;;;5084227;28;20039;-69
2024/03/29 03:53:54;;;;;;;2.30;0.95;;;4.40;99.90;;;;;;5101998;28;20126;-68
2024/03/29 03:56:20;;;;;;;1.17;0.98;;;4.60;99.90;;;;;;5102793;28;20316;-68
2024/03/29 03:58:46;;;;;;;1.90;0.95;;;4.40;99.90;;;;;;5083886;28;20039;-68
2024/03/29 04:01:12;;;;;;;1.50;1.00;;;4.40;99.90;;;;;;5102317;28;20036;-66
2024/03/29 04:03:39;;;;;;;3.72;0.82;;;4.30;99.90;;;;;;5102092;28;20028;-66
2024/03/29 04:06:06;;;;;;;1.35;0.95;;;4.30;99.90;;;;;;5101933;28;20024;-66
2024/03/29 04:08:31;;;;;;;1.20;1.10;;;4.20;99.90;;;;;;5106781;28;20054;-68
2024/03/29 04:10:58;;;;;;;1.45;1.00;;;;;;;;;;5090728;28;20027;-70
2024/03/29 04:13:24;;;;;;;3.72;1.55;;;4.30;99.90;;;;;;5084165;28;20103;-69
2024/03/29 04:15:49;;;;;;;1.13;0.90;;;4.30;99.90;;;;;;5082772;28;20020;-69
2024/03/29 04:18:15;;;;;;;1.85;0.93;;;;;;;;;;5107246;28;20087;-68
2024/03/29 04:20:41;;;;;;;2.72;1.02;;;;;;;;;;5107364;28;20034;-68
2024/03/29 04:23:07;;;;;;;2.97;0.90;;;4.20;99.90;;;;;;5101508;28;20038;-68
2024/03/29 04:25:33;;;;;;;0.77;0.77;;;;;;;;;;5101502;28;20505;-68
2024/03/29 04:27:59;;;;;;;1.02;0.93;;;;;;;;;;5101460;28;20028;-68
2024/03/29 04:30:25;;;;;;;1.70;0.70;;;;;;;;;;5101989;28;20020;-67
2024/03/29 04:32:51;;;;;;;1.60;0.75;;;;;;;;;;5103398;28;20361;-67
2024/03/29 04:35:17;;;;;;;3.88;1.00;;;;;;;;;;5102275;28;20355;-66
2024/03/29 04:37:43;;;;;;;5.80;3.53;;;4.10;99.90;;;;;;5103393;28;20028;-67
2024/03/29 04:40:09;;;;;;;4.22;2.53;;;5.90;99.90;;;;;;5105418;28;20088;-68
2024/03/29 04:42:35;;;;;;;3.78;2.03;;;4.00;99.90;;;;;;5100980;28;20035;-67
2024/03/29 04:45:01;;;;;;;7.10;2.55;;;4.00;99.90;;;;;;5101093;28;20032;-67
2024/03/29 04:47:27;;;;;;;6.35;2.50;;;4.00;99.90;;;;;;5104415;28;20097;-67
2024/03/29 04:49:52;;;;;;;2.65;1.73;;;3.80;99.90;;;;;;5100864;28;20056;-65
2024/03/29 04:52:18;;;;;;;2.20;1.40;;;4.00;99.90;;;;;;5083080;28;20308;-65
2024/03/29 04:54:44;;;;;;;1.75;1.30;;;4.20;99.90;;;;;;5100934;28;20356;-67
2024/03/29 04:57:10;;;;;;;3.08;1.10;;;4.40;99.90;;;;;;5101016;28;20201;-66
2024/03/29 04:59:36;;;;;;;1.20;1.00;;;4.30;99.90;;;;;;5101006;28;20273;-67
2024/03/29 05:02:02;;;;;;;3.03;0.80;;;4.20;99.90;;;;;;5100988;28;20016;-67
2024/03/29 05:04:28;;;;;;;1.23;0.75;;;4.40;99.90;;;;;;5101625;28;20240;-66
2024/03/29 05:06:54;;;;;;;1.10;0.70;;;4.60;99.90;;;;;;5100499;28;20091;-66
2024/03/29 05:09:21;;;;;;;0.65;0.52;;;4.60;99.90;;;;;;5100916;28;20051;-66
2024/03/29 05:11:47;;;;;;;0.80;0.50;;;4.60;99.90;;;;;;5100627;28;20028;-66
2024/03/29 05:14:18;;;;;;;2.42;0.75;;;4.60;99.90;;;;;;5100921;28;20099;-66
2024/03/29 05:16:45;;;;;;;0.77;0.70;;;4.60;99.90;;;;;;5100453;28;20032;-66
2024/03/29 05:19:11;;;;;;;0.70;0.40;;;4.80;99.90;;;;;;5100481;28;20192;-66
2024/03/29 05:21:36;;;;;;;0.30;0.30;;;4.70;99.90;;;;;;5100939;28;20096;-66
2024/03/29 05:24:02;;;;;;;2.15;0.60;;;;;;;;;;5100446;28;20036;-66
2024/03/29 05:26:29;;;;;;;0.95;0.57;;;;;;;;;;5106741;28;20259;-67
2024/03/29 05:28:57;;;;;;;1.65;0.30;;;5.00;99.90;;;;;;5100228;28;20044;-66
2024/03/29 05:31:23;;;;;;;0.40;0.40;;;;;;;;;;5100355;28;20019;-67
2024/03/29 05:33:49;;;;;;;0.38;0.38;;;;;;;;;;5100034;28;20036;-67
2024/03/29 05:36:15;;;;;;;1.77;0.50;;;;;;;;;;5100213;28;20036;-67
2024/03/29 05:38:41;;;;;;;0.75;0.55;;;;;;;;;;5107824;28;20035;-66
2024/03/29 05:41:08;;;;;;;0.40;0.40;;;;;;;;;;5100012;28;20272;-66
2024/03/29 05:43:33;;;;;;;0.55;0.40;;;5.40;99.90;;;;;;5100025;28;20067;-66
2024/03/29 05:46:02;;;;;;;1.58;1.02;;;5.20;99.90;;;;;;5099819;28;20028;-65
2024/03/29 05:48:29;;;;;;;2.50;0.40;;;5.40;99.90;;;;;;5100492;28;20027;-66
2024/03/29 05:50:54;;;;;;;0.22;0.22;;;5.40;99.90;;;;;;5099919;28;20050;-66
2024/03/29 05:53:20;;;;;;;0.73;0.52;;;5.40;99.90;;;;;;5099876;28;20351;-67
2024/03/29 05:55:46;;;;;;;1.13;0.32;;;;;;;;;;5101824;28;20354;-66
2024/03/29 05:58:17;;;;;;;1.33;1.08;;;5.70;99.90;;;;;;5096736;28;20326;-66
2024/03/29 06:00:43;;;;;;;5.88;2.50;;;;;;;;;;5099787;28;20464;-67
2024/03/29 06:03:09;;;;;;;4.93;2.00;;;;;;;;;;5099933;28;20028;-66
2024/03/29 06:05:35;;;;;;;4.30;2.22;;;;;;;;;;5099493;28;20084;-68
2024/03/29 06:08:05;;;;;;;4.70;2.97;;;5.80;99.90;;;;;;5080169;28;20043;-67
2024/03/29 06:10:31;;;;;;;1.58;1.20;;;;;;;;;;5099696;28;20347;-66
2024/03/29 06:13:06;;;;;;;1.27;0.77;;;;;;;;;;5082053;28;20219;-68
2024/03/29 06:18:18;;;;;;;0.85;0.77;;;;;;;;;;5099774;28;20043;-67
2024/03/29 06:20:47;;;;;;;1.50;1.05;;;6.50;99.90;;;;;;5099431;28;20320;-67
2024/03/29 06:23:12;;;;;;;3.85;2.33;;;7.30;99.90;;;;;;5099621;28;20027;-67
2024/03/29 06:25:39;;;;;;;8.48;3.45;;;6.80;99.90;;;;;;5106343;28;20040;-68
2024/03/29 06:28:05;;;;;;;2.05;1.15;;;7.00;99.90;;;;;;5099418;28;20045;-67
2024/03/29 06:30:31;;;;;;;1.77;1.40;;;7.20;99.90;;;;;;5100187;28;20087;-68
2024/03/29 06:32:57;;;;;;;3.03;1.35;;;7.40;99.90;;;;;;5081266;28;20215;-69
2024/03/29 06:35:23;;;;;;;1.38;1.08;;;7.50;99.90;;;;;;5099560;28;20028;-69
2024/03/29 06:37:48;;;;;;;3.15;0.90;;;7.60;99.90;;;;;;5100485;28;20093;-69
2024/03/29 06:40:15;;;;;;;2.45;0.85;;;;;;;;;;5103569;28;20035;-70
2024/03/29 06:42:40;;;;;;;0.68;0.50;;;8.00;99.90;;;;;;5103446;28;20047;-70
2024/03/29 06:45:06;;;;;;;0.38;0.35;;;;;;;;;;5103310;28;20035;-70
2024/03/29 06:47:33;;;;;;;1.80;0.77;;;;;;;;;;5104153;28;20035;-70
2024/03/29 06:49:59;;;;;;;0.40;0.38;;;;;;;;;;5103295;28;20020;-69
2024/03/29 06:52:24;;;;;;;0.30;0.30;;;8.50;99.90;;;;;;5103113;28;20031;-69
2024/03/29 06:54:50;;;;;;;1.65;0.50;;;8.70;99.90;;;;;;5103108;28;20415;-68
2024/03/29 06:57:20;;;;;;;2.95;0.60;;;8.70;99.90;;;;;;5085014;28;20028;-67
2024/03/29 06:59:46;;;;;;;0.90;0.47;;;8.90;99.90;;;;;;5103136;28;20036;-68
2024/03/29 07:02:13;;;;;;;0.40;0.40;;;9.00;99.90;;;;;;5103231;28;20032;-67
2024/03/29 07:04:38;;;;;;;0.40;0.40;;;9.10;99.90;;;;;;5103490;28;20253;-66
2024/03/29 07:07:04;;;;;;;0.40;0.30;;;9.20;99.90;;;;;;5103188;28;20043;-68
2024/03/29 07:09:30;;;;;;;0.50;0.40;;;9.20;99.90;;;;;;5084840;28;20334;-68
2024/03/29 07:11:55;;;;;;;0.30;0.22;;;9.40;98.10;;;;;;5103180;28;20327;-68
2024/03/29 07:14:23;;;;;;;0.43;0.38;;;9.20;95.30;;;;;;5084788;28;20020;-68
2024/03/29 07:16:49;;;;;;;0.45;0.38;;;9.60;96.50;;;;;;5102851;28;20299;-68
2024/03/29 07:19:16;;;;;;;1.08;0.30;;;9.70;96.40;;;;;;5109547;28;20027;-68
2024/03/29 07:21:44;;;;;;;0.52;0.28;;;9.80;95.40;;;;;;5103391;28;20298;-67
2024/03/29 07:24:10;;;;;;;0.95;0.75;;;10.00;94.20;;;;;;5102952;28;20026;-68
2024/03/29 07:26:36;;;;;;;1.25;0.30;;;10.10;93.00;;;;;;5105596;28;20040;-67
2024/03/29 07:29:05;;;;;;;6.53;0.38;;;10.30;93.00;;;;;;5104814;28;20024;-68
2024/03/29 07:31:31;;;;;;;1.75;0.40;;;10.40;92.70;;;;;;5103385;28;20062;-69
2024/03/29 07:33:57;;;;;;;0.50;0.38;;;10.60;92.00;;;;;;5116698;27;20032;-69
2024/03/29 07:36:25;;;;;;;0.68;0.30;;;10.70;91.50;;;;;;5104421;28;20046;-68
2024/03/29 07:38:51;;;;;;;1.58;0.55;;;11.10;96.40;;;;;;5102901;28;20031;-68
2024/03/29 07:41:17;;;;;;;0.20;0.20;;;11.20;97.10;;;;;;5067964;28;20050;-68
2024/03/29 07:43:56;;;;;;;0.65;0.13;;;11.20;83.90;;;;;;5086921;28;20035;-68
2024/03/29 07:46:30;;;;;;;0.30;0.20;;;11.20;84.10;;;;;;5074672;28;20059;-65
2024/03/29 07:48:56;;;;;;;0.30;0.30;;;;;;;;;;5101423;28;20304;-65
2024/03/29 07:51:22;;;;;;;0.73;0.30;;;11.60;90.30;;;;;;5102514;28;20346;-65
2024/03/29 07:53:48;;;;;;;0.52;0.40;;;11.60;93.30;;;;;;5102402;28;20405;-65
2024/03/29 07:56:13;;;;;;;0.50;0.30;;;12.20;92.50;;;;;;5106166;28;20035;-65
2024/03/29 07:58:39;;;;;;;1.48;0.40;;;12.00;92.10;;;;;;5104820;28;20426;-65
2024/03/29 08:01:05;;;;;;;3.05;0.57;;;13.30;93.20;;;;;;5102622;28;20031;-65
2024/03/29 08:03:34;;;;;;;1.60;0.63;;;12.20;79.80;;;;;;5103705;28;20370;-65
2024/03/29 08:06:04;;;;;;;0.65;0.30;;;12.40;80.20;;;;;;5102027;28;20076;-65
2024/03/29 08:08:33;;;;;;;1.95;0.60;;;12.60;78.90;;;;;;5102048;28;20060;-66
2024/03/29 08:10:59;;;;;;;0.57;0.30;;;13.00;75.60;;;;;;5102036;28;20058;-65
2024/03/29 08:13:29;;;;;;;0.22;0.22;;;13.00;89.30;;;;;;5083509;28;20099;-65
2024/03/29 08:16:00;;;;;;;0.57;0.30;;;13.20;74.00;;;;;;5068966;28;20039;-65
2024/03/29 08:18:26;;;;;;;0.70;0.40;;;13.10;90.60;;;;;;5081099;28;20043;-65
2024/03/29 08:20:54;;;;;;;0.52;0.50;;;13.40;74.20;;;;;;5100184;28;20099;-64
2024/03/29 08:23:23;;;;;;;1.70;0.50;;;13.60;87.50;;;;;;5083306;28;20323;-65
2024/03/29 08:25:49;;;;;;;0.95;0.40;;;13.70;82.90;;;;;;5108352;28;20120;-65
2024/03/29 08:28:15;;;;;;;0.70;0.50;;;14.10;82.40;;;;;;5101919;28;20425;-65
2024/03/29 08:30:41;;;;;;;0.95;0.57;;;14.00;81.60;;;;;;5101472;28;20034;-65
2024/03/29 08:33:07;;;;;;;4.97;0.70;;;14.20;81.30;;;;;;5085118;28;20064;-65
2024/03/29 08:35:34;;;;;;;0.75;0.55;;;14.50;83.40;;;;;;5076558;28;20115;-65
2024/03/29 08:38:00;;;;;;;2.22;0.50;;;14.30;69.10;;;;;;5109361;28;20028;-65
2024/03/29 08:40:34;;;;;;;1.13;0.22;;;14.30;69.30;;;;;;5101479;28;20023;-66
2024/03/29 08:42:59;;;;;;;0.80;0.47;;;14.60;64.70;;;;;;5102557;28;20320;-65
2024/03/29 08:45:25;;;;;;;0.30;0.20;;;14.60;66.50;;;;;;5103111;28;20049;-65
2024/03/29 08:47:51;;;;;;;2.20;0.40;;;14.90;80.80;;;;;;5103452;28;21213;-65
2024/03/29 08:50:16;;;;;;;0.28;0.20;;;14.90;62.60;;;;;;5108442;28;20020;-66
2024/03/29 08:52:44;;;;;;;2.72;0.32;;;15.30;74.80;;;;;;5100973;27;20048;-66
2024/03/29 08:55:10;;;;;;;1.52;0.28;;;15.30;71.80;;;;;;5107879;28;20370;-66
2024/03/29 08:57:35;;;;;;;0.55;0.28;;;15.70;70.20;;;;;;5066058;28;20028;-66
2024/03/29 09:00:03;;;;;;;0.80;0.30;;;;;;;;;;5100206;28;20020;-66
2024/03/29 09:02:28;;;;;;;0.63;0.30;;;15.60;57.30;;;;;;5101080;28;20394;-66
2024/03/29 09:04:54;;;;;;;0.45;0.20;;;15.70;57.50;;;;;;5082269;28;20059;-67
2024/03/29 09:07:22;;;;;;;0.60;0.30;;;;;;;;;;5100568;28;20363;-66
2024/03/29 09:09:49;;;;;;;0.55;0.40;;;15.80;55.80;;;;;;5087229;28;20111;-66
2024/03/29 09:12:18;;;;;;;1.15;0.40;;;;;;;;;;5109098;28;20090;-66
2024/03/29 09:14:44;;;;;;;0.68;0.60;;;15.70;68.50;;;;;;5100382;28;20342;-66
2024/03/29 09:17:11;;;;;;;0.43;0.43;;;15.70;68.70;;;;;;5100070;28;20051;-66
2024/03/29 09:19:37;;;;;;;1.52;0.60;;;15.60;68.20;;;;;;5101098;28;20093;-65
2024/03/29 09:22:03;;;;;;;0.20;0.20;;;;;;;;;;5100252;28;20375;-66
2024/03/29 09:24:29;;;;;;;1.40;0.60;;;16.40;68.20;;;;;;5100256;28;20336;-66
2024/03/29 09:26:54;;;;;;;0.38;0.30;;;15.70;68.50;;;;;;5101007;28;20043;-65
2024/03/29 09:29:20;;;;;;;0.32;0.20;;;;;;;;;;5110114;28;20066;-66
2024/03/29 09:31:47;;;;;;;3.50;0.50;;;;;;;;;;5101265;28;20028;-66
2024/03/29 09:34:12;;;;;;;3.20;0.32;;;15.60;67.20;;;;;;5099954;28;20031;-65
2024/03/29 09:36:38;;;;;;;2.15;0.55;;;15.90;68.20;;;;;;5100650;28;20028;-66
2024/03/29 09:39:04;;;;;;;0.40;0.32;;;15.60;67.90;;;;;;5081948;28;20053;-65
2024/03/29 09:41:34;;;;;;;0.22;0.20;;;15.80;54.80;;;;;;5099199;28;20036;-65
2024/03/29 09:44:02;;;;;;;2.10;0.50;;;15.90;67.50;;;;;;5100045;28;20397;-65
2024/03/29 09:46:29;;;;;;;13.68;0.80;;;15.90;67.90;;;;;;5100133;28;20047;-66
2024/03/29 09:48:55;;;;;;;0.55;0.35;;;16.20;70.60;;;;;;5099801;28;20051;-65
2024/03/29 09:51:22;;;;;;;2.75;0.35;;;16.10;55.20;;;;;;5099077;28;20065;-66
2024/03/29 09:53:48;;;;;;;0.22;0.22;;;16.60;55.20;;;;;;5099903;28;20187;-66
2024/03/29 09:56:14;;;;;;;2.67;0.60;;;16.50;54.80;;;;;;5085389;28;20534;-67
2024/03/29 09:58:40;;;;;;;1.58;0.73;;;16.50;54.20;;;;;;5099893;28;20093;-65
2024/03/29 10:01:10;;;;;;;2.05;0.80;;;16.50;54.60;;;;;;5099624;28;20115;-65
2024/03/29 10:03:40;;;;;;;1.40;0.47;;;16.40;54.00;;;;;;5099678;28;20354;-65
2024/03/29 10:06:09;;;;;;;1.25;0.50;;;16.50;54.00;;;;;;5102310;28;20047;-65
2024/03/29 10:08:37;;;;;;;0.65;0.50;;;16.70;54.00;;;;;;5099593;28;20035;-65
2024/03/29 10:11:03;;;;;;;1.03;0.40;;;16.80;53.90;;;;;;5100122;28;20031;-66
2024/03/29 10:13:30;;;;;;;3.30;0.63;;;16.90;54.20;;;;;;5099624;28;20039;-66
2024/03/29 10:15:56;;;;;;;0.70;0.63;;;16.90;54.30;;;;;;5102472;28;20028;-65
2024/03/29 10:18:23;;;;;;;1.83;0.50;;;17.30;69.60;;;;;;5104027;28;20054;-65
2024/03/29 10:20:59;;;;;;;1.58;0.60;;;17.30;54.70;;;;;;5106812;28;20039;-66
2024/03/29 10:23:24;;;;;;;2.03;0.88;;;17.40;54.00;;;;;;5099563;28;20020;-66
2024/03/29 10:25:50;;;;;;;1.35;0.50;;;17.70;68.30;;;;;;5106283;28;20042;-66
2024/03/29 10:28:18;;;;;;;0.80;0.43;;;17.50;53.90;;;;;;5099957;28;20036;-66
2024/03/29 10:30:43;;;;;;;2.17;0.70;;;17.80;53.40;;;;;;5099336;28;20031;-66
2024/03/29 10:33:09;;;;;;;1.80;0.40;;;17.80;53.10;;;;;;5099354;28;20377;-66
2024/03/29 10:35:35;;;;;;;1.80;0.65;;;17.90;53.40;;;;;;5099438;28;20035;-66
2024/03/29 10:38:03;;;;;;;2.90;0.60;;;18.20;53.80;;;;;;5099372;28;20207;-66
2024/03/29 10:40:30;;;;;;;0.65;0.60;;;18.50;53.40;;;;;;5099306;28;20028;-66
2024/03/29 10:42:57;;;;;;;1.92;0.45;;;18.40;53.10;;;;;;5098982;28;20050;-66
2024/03/29 10:45:23;;;;;;;0.70;0.50;;;18.40;53.70;;;;;;5099714;28;20462;-66
2024/03/29 10:47:52;;;;;;;0.75;0.55;;;18.50;54.20;;;;;;5099093;28;20095;-66
2024/03/29 10:50:21;;;;;;;1.83;0.65;;;18.50;66.50;;;;;;5099227;28;20048;-65
2024/03/29 10:52:48;;;;;;;1.70;0.50;;;18.50;53.30;;;;;;5099075;28;20406;-66
2024/03/29 10:55:14;;;;;;;1.13;0.70;;;18.50;54.10;;;;;;5099513;28;20039;-66
2024/03/29 10:57:41;;;;;;;1.60;0.80;;;18.20;66.60;;;;;;5099351;28;20031;-66
2024/03/29 11:00:18;;;;;;;3.40;1.00;;;18.40;54.90;;;;;;5099174;28;20028;-66
2024/03/29 11:03:01;;;;;;;2.03;0.52;;;18.50;55.40;;;;;;5100538;28;20327;-66
2024/03/29 11:05:29;;;;;;;1.77;0.90;;;18.90;66.70;;;;;;5098983;28;20042;-66
2024/03/29 11:07:56;;;;;;;2.65;0.77;;;19.20;67.30;;;;;;5099162;28;20620;-66
2024/03/29 11:10:35;;;;;;;0.73;0.68;;;18.80;56.10;;;;;;5099118;28;20031;-66
2024/03/29 11:13:43;;;;;;;4.38;0.73;;;18.90;56.20;;;;;;5099054;28;20044;-65
2024/03/29 11:16:11;;;;;;;2.53;0.95;;;18.80;55.60;;;;;;5099124;28;20050;-65
2024/03/29 11:18:37;;;;;;;3.60;1.08;;;18.80;56.10;;;;;;5099371;28;20040;-65
2024/03/29 11:21:06;;;;;;;5.72;0.95;;;19.30;62.10;;;;;;5098781;28;20028;-65
2024/03/29 11:23:32;;;;;;;2.88;0.90;;;19.10;66.60;;;;;;5081327;28;20028;-65
2024/03/29 11:25:59;;;;;;;3.97;0.80;;;19.30;66.70;;;;;;5102366;28;20347;-65
2024/03/29 11:28:35;;;;;;;2.45;0.90;;;19.60;66.40;;;;;;5084208;28;20331;-65
2024/03/29 11:31:04;;;;;;;3.33;0.75;;;19.50;66.40;;;;;;5102403;28;20028;-65
2024/03/29 11:33:46;;;;;;;6.13;1.05;;;19.60;66.30;;;;;;5102447;28;20035;-65
2024/03/29 11:36:13;;;;;;;6.88;1.15;;;19.30;66.40;;;;;;5108839;28;20211;-65
2024/03/29 11:38:39;;;;;;;8.30;1.40;;;19.20;66.70;;;;;;5108273;28;20103;-65
2024/03/29 11:41:13;;;;;;;4.72;0.90;;;19.30;67.00;;;;;;5113858;28;20042;-65
2024/03/29 11:43:40;;;;;;;2.65;1.17;;;19.10;66.90;;;;;;5105328;28;20095;-65
2024/03/29 11:46:08;;;;;;;4.72;1.45;;;19.30;66.50;;;;;;5102482;28;20032;-65
2024/03/29 11:48:35;;;;;;;3.28;1.20;;;19.30;67.00;;;;;;5102468;28;20291;-65
2024/03/29 11:51:03;;;;;;;2.58;1.20;;;19.30;67.00;;;;;;5083935;28;20099;-65
2024/03/29 11:53:29;;;;;;;6.07;1.45;;;19.50;67.60;;;;;;5102611;28;20056;-65
2024/03/29 11:55:59;;;;;;;3.38;1.00;;;19.30;56.80;;;;;;5105990;28;20036;-64
2024/03/29 11:58:27;;;;;;;3.60;1.30;;;19.50;68.00;;;;;;5109292;28;20028;-65
2024/03/29 12:00:53;;;;;;;6.55;1.60;;;19.40;67.70;;;;;;5101666;28;20028;-65
2024/03/29 12:03:21;;;;;;;5.28;1.77;;;19.70;67.70;;;;;;5103331;28;20024;-67
2024/03/29 12:05:50;;;;;;;4.28;1.50;;;19.20;59.80;;;;;;5101867;28;20035;-65
2024/03/29 12:08:16;;;;;;;;;;;19.20;58.10;;;;;;5102281;28;20036;-65
2024/03/29 12:10:42;;;;;;;3.28;1.08;;;19.40;68.80;;;;;;5102475;28;19959;-65
2024/03/29 12:13:09;;;;;;;4.57;1.70;;;;;;;;;;5084696;28;20028;-65
2024/03/29 12:15:35;;;;;;;3.75;0.90;;;19.50;64.20;;;;;;5098074;28;20081;-64
2024/03/29 12:18:08;;;;;;;3.45;1.20;;;19.60;57.70;;;;;;5101334;28;20410;-64
2024/03/29 12:20:52;;;;;;;3.95;1.00;;;19.50;58.00;;;;;;5032030;28;20064;-65
2024/03/29 12:23:19;;;;;;;7.28;1.58;;;19.40;58.30;;;;;;5038398;28;20118;-65
2024/03/29 12:25:45;;;;;;;5.47;1.20;;;17.70;57.90;;;;;;5038939;28;20071;-65
2024/03/29 12:28:12;;;;;;;8.05;2.08;;;19.40;58.70;;;;;;5038973;28;20096;-65
2024/03/29 12:30:42;;;;;;;4.55;1.50;;;19.40;60.30;;;;;;5039918;28;20192;-65
2024/03/29 12:33:14;;;;;;;3.38;1.20;;;19.80;59.10;;;;;;5040774;28;20037;-65
2024/03/29 12:35:44;;;;;;;3.83;1.33;;;20.00;58.00;;;;;;5036325;28;20169;-65
2024/03/29 12:38:15;;;;;;;9.10;1.67;;;20.20;67.70;;;;;;5037655;28;20018;-65
2024/03/29 12:40:47;;;;;;;3.63;1.23;;;20.40;57.50;;;;;;5037089;28;20107;-65
2024/03/29 12:43:14;;;;;;;4.40;1.40;;;20.90;66.70;;;;;;5023670;28;20218;-65
2024/03/29 12:45:41;;;;;;;7.38;1.55;;;21.30;56.00;;;;;;5041671;28;20053;-65
2024/03/29 12:48:20;;;;;;;8.88;1.63;;;21.90;65.10;;;;;;5037723;28;20033;-65
2024/03/29 12:50:47;;;;;;;8.07;1.52;;;21.80;63.80;;;;;;5039317;28;20054;-65
2024/03/29 12:53:14;;;;;;;4.07;1.20;;;21.90;64.50;;;;;;5097227;28;20040;-65
2024/03/29 12:55:45;;;;;;;5.60;1.20;;;21.20;64.90;;;;;;5100042;28;20122;-65
2024/03/29 12:58:15;;;;;;;6.43;1.85;;;21.20;65.90;;;;;;5100332;28;20054;-65
2024/03/29 13:00:41;;;;;;;6.03;1.10;;;21.00;61.90;;;;;;5100850;28;20023;-65
2024/03/29 13:03:07;;;;;;;8.13;1.20;;;20.50;56.70;;;;;;5100175;28;20031;-65
2024/03/29 13:05:35;;;;;;;9.70;3.58;;;20.50;67.90;;;;;;5100511;28;20221;-65
2024/03/29 13:08:04;;;;;;;6.50;1.95;;;20.40;56.80;;;;;;5100898;28;20028;-65
2024/03/29 13:10:31;;;;;;;7.60;1.60;;;20.80;59.20;;;;;;5100606;28;20067;-65
2024/03/29 13:12:57;;;;;;;9.55;1.83;;;20.70;67.70;;;;;;5100534;28;20058;-65
2024/03/29 13:15:27;;;;;;;5.80;2.05;;;20.50;68.20;;;;;;5100565;28;20312;-65
2024/03/29 13:17:54;;;;;;;13.25;3.35;;;20.20;57.60;;;;;;5101044;28;20332;-65
2024/03/29 13:20:21;;;;;;;4.57;1.42;;;19.70;58.00;;;;;;5116885;28;20103;-65